createdAt,value
2017-10-07T00:00:06.494Z,92.93
2017-10-07T00:02:34.019Z,92.96
2017-10-07T00:05:01.511Z,93.29
2017-10-07T00:07:29.036Z,92.89
2017-10-07T00:09:56.595Z,92.91
2017-10-07T00:12:24.152Z,92.89
2017-10-07T00:14:51.640Z,92.89
2017-10-07T00:17:19.158Z,93.02
2017-10-07T00:19:46.666Z,93.11
2017-10-07T00:22:14.211Z,93.06
2017-10-07T00:24:41.708Z,92.87
2017-10-07T00:27:09.196Z,92.77
2017-10-07T00:29:36.718Z,92.46
2017-10-07T00:32:04.199Z,92.03
2017-10-07T00:34:31.679Z,91.71
2017-10-07T00:36:59.241Z,91.72
2017-10-07T00:39:26.732Z,92.20
2017-10-07T00:41:54.222Z,91.91
2017-10-07T00:44:21.798Z,92.19
2017-10-07T00:46:49.374Z,92.19
2017-10-07T00:49:16.924Z,92.10
2017-10-07T00:51:44.459Z,92.05
2017-10-07T00:54:11.958Z,92.06
2017-10-07T00:56:39.452Z,92.01
2017-10-07T00:59:06.992Z,92.18
2017-10-07T01:01:34.476Z,92.33
2017-10-07T01:04:01.964Z,92.32
2017-10-07T01:06:29.493Z,92.21
2017-10-07T01:08:56.980Z,91.99
2017-10-07T01:11:24.539Z,92.12
2017-10-07T01:13:52.027Z,91.94
2017-10-07T01:16:19.507Z,91.80
2017-10-07T01:18:47.035Z,91.37
2017-10-07T01:21:14.531Z,91.56
2017-10-07T01:23:42.024Z,91.28
2017-10-07T01:26:09.571Z,91.34
2017-10-07T01:28:37.066Z,91.34
2017-10-07T01:31:04.631Z,90.99
2017-10-07T01:33:32.176Z,91.08
2017-10-07T01:35:59.701Z,91.16
2017-10-07T01:38:27.294Z,91.20
2017-10-07T01:40:54.770Z,91.18
2017-10-07T01:43:22.309Z,91.15
2017-10-07T01:45:49.822Z,90.99
2017-10-07T01:48:17.351Z,91.00
2017-10-07T01:50:44.834Z,90.99
2017-10-07T01:53:12.349Z,90.96
2017-10-07T01:55:39.839Z,91.15
2017-10-07T01:58:07.380Z,91.34
2017-10-07T02:00:34.860Z,91.41
2017-10-07T02:03:02.379Z,91.63
2017-10-07T02:05:29.892Z,91.76
2017-10-07T02:07:57.375Z,91.70
2017-10-07T02:10:24.924Z,91.72
2017-10-07T02:12:52.408Z,91.65
2017-10-07T02:15:19.896Z,91.56
2017-10-07T02:17:47.444Z,91.58
2017-10-07T02:20:14.989Z,91.59
2017-10-07T02:22:42.543Z,91.47
2017-10-07T02:25:10.059Z,91.44
2017-10-07T02:27:37.544Z,91.39
2017-10-07T02:30:05.081Z,91.26
2017-10-07T02:32:32.565Z,91.44
2017-10-07T02:35:00.136Z,91.06
2017-10-07T02:37:27.620Z,91.10
2017-10-07T02:39:55.111Z,90.97
2017-10-07T02:42:22.654Z,90.95
2017-10-07T02:44:50.136Z,90.82
2017-10-07T02:47:17.619Z,90.71
2017-10-07T02:49:45.147Z,90.67
2017-10-07T02:52:12.644Z,90.73
2017-10-07T02:54:40.172Z,90.86
2017-10-07T02:57:07.662Z,90.76
2017-10-07T02:59:35.148Z,90.50
2017-10-07T03:02:02.710Z,90.52
2017-10-07T03:04:30.209Z,90.23
2017-10-07T03:06:57.700Z,90.25
2017-10-07T03:09:25.221Z,90.30
2017-10-07T03:11:52.812Z,90.14
2017-10-07T03:14:20.373Z,89.82
2017-10-07T03:16:48.032Z,89.86
2017-10-07T03:19:15.534Z,89.88
2017-10-07T03:21:43.058Z,89.71
2017-10-07T03:24:10.552Z,89.46
2017-10-07T03:26:38.084Z,89.52
2017-10-07T03:29:05.610Z,89.73
2017-10-07T03:31:33.098Z,89.40
2017-10-07T03:34:00.640Z,89.40
2017-10-07T03:36:28.221Z,89.27
2017-10-07T03:41:29.955Z,89.28
2017-10-07T03:43:57.450Z,89.43
2017-10-07T03:46:24.939Z,89.45
2017-10-07T03:48:52.552Z,89.54
2017-10-07T03:51:20.045Z,89.32
2017-10-07T03:53:47.536Z,89.61
2017-10-07T03:56:15.122Z,89.52
2017-10-07T03:58:42.620Z,89.73
2017-10-07T04:01:10.112Z,89.38
2017-10-07T04:03:37.654Z,89.28
2017-10-07T04:06:05.139Z,89.20
2017-10-07T04:08:32.630Z,88.96
2017-10-07T04:11:00.178Z,88.98
2017-10-07T04:13:27.752Z,88.91
2017-10-07T04:15:55.294Z,88.96
2017-10-07T04:18:23.200Z,88.75
2017-10-07T04:20:50.688Z,88.67
2017-10-07T04:23:18.183Z,89.33
2017-10-07T04:25:45.691Z,89.79
2017-10-07T04:28:13.213Z,90.23
2017-10-07T04:30:40.851Z,90.56
2017-10-07T04:33:08.339Z,91.26
2017-10-07T04:35:35.876Z,91.77
2017-10-07T04:38:03.412Z,92.06
2017-10-07T04:40:30.985Z,92.32
2017-10-07T04:42:58.501Z,92.30
2017-10-07T04:45:26.022Z,92.56
2017-10-07T04:47:53.511Z,92.52
2017-10-07T04:50:21.011Z,92.91
2017-10-07T04:52:48.547Z,93.20
2017-10-07T04:55:16.036Z,93.41
2017-10-07T04:57:43.521Z,93.33
2017-10-07T05:00:11.072Z,93.33
2017-10-07T05:02:38.554Z,93.10
2017-10-07T05:05:06.092Z,92.85
2017-10-07T05:07:33.608Z,92.94
2017-10-07T05:10:01.083Z,92.85
2017-10-07T05:12:28.640Z,92.79
2017-10-07T05:14:56.397Z,92.97
2017-10-07T05:17:23.974Z,92.61
2017-10-07T05:19:51.456Z,92.51
2017-10-07T05:22:19.081Z,92.24
2017-10-07T05:24:46.569Z,92.09
2017-10-07T05:27:14.062Z,92.10
2017-10-07T05:29:41.595Z,92.19
2017-10-07T05:32:09.123Z,91.82
2017-10-07T05:34:36.609Z,91.85
2017-10-07T05:37:04.120Z,91.82
2017-10-07T05:39:31.617Z,91.92
2017-10-07T05:41:59.184Z,91.71
2017-10-07T05:44:26.679Z,91.77
2017-10-07T05:46:54.166Z,91.75
2017-10-07T05:49:21.682Z,91.76
2017-10-07T05:51:49.174Z,91.76
2017-10-07T05:54:16.707Z,91.23
2017-10-07T05:56:44.190Z,91.89
2017-10-07T05:59:11.680Z,91.62
2017-10-07T06:01:39.227Z,91.56
2017-10-07T06:04:06.752Z,91.44
2017-10-07T06:06:34.264Z,91.81
2017-10-07T06:09:01.757Z,91.82
2017-10-07T06:11:29.264Z,91.16
2017-10-07T06:13:56.811Z,91.46
2017-10-07T06:16:24.318Z,90.78
2017-10-07T06:18:51.823Z,90.23
2017-10-07T06:21:19.310Z,90.19
2017-10-07T06:23:46.824Z,90.80
2017-10-07T06:26:14.420Z,90.91
2017-10-07T06:28:41.914Z,90.85
2017-10-07T06:31:09.436Z,91.19
2017-10-07T06:33:36.981Z,91.58
2017-10-07T06:36:04.471Z,91.53
2017-10-07T06:38:32.013Z,91.71
2017-10-07T06:40:59.505Z,91.54
2017-10-07T06:43:26.996Z,91.55
2017-10-07T06:45:54.777Z,91.26
2017-10-07T06:48:22.273Z,91.08
2017-10-07T06:50:49.767Z,90.82
2017-10-07T06:53:17.470Z,90.50
2017-10-07T06:55:44.958Z,90.76
2017-10-07T06:58:12.466Z,91.00
2017-10-07T07:00:40.003Z,91.04
2017-10-07T07:03:07.508Z,90.62
2017-10-07T07:05:34.998Z,90.09
2017-10-07T07:08:02.705Z,90.06
2017-10-07T07:10:30.195Z,90.00
2017-10-07T07:12:57.691Z,89.56
2017-10-07T07:15:25.220Z,89.50
2017-10-07T07:17:52.767Z,89.27
2017-10-07T07:20:20.265Z,89.55
2017-10-07T07:22:47.762Z,88.22
2017-10-07T07:25:15.332Z,88.79
2017-10-07T07:27:42.815Z,88.20
2017-10-07T07:30:10.312Z,87.70
2017-10-07T07:32:37.853Z,87.70
2017-10-07T07:35:05.446Z,87.39
2017-10-07T07:37:32.940Z,87.17
2017-10-07T07:40:00.484Z,87.38
2017-10-07T07:42:27.975Z,87.47
2017-10-07T07:44:55.477Z,87.68
2017-10-07T07:47:23.014Z,86.52
2017-10-07T07:49:50.512Z,85.59
2017-10-07T07:52:18.004Z,85.46
2017-10-07T07:54:45.507Z,85.91
2017-10-07T07:57:13.033Z,85.11
2017-10-07T07:59:40.537Z,85.39
2017-10-07T08:02:08.091Z,85.32
2017-10-07T08:04:35.644Z,84.53
2017-10-07T08:07:03.144Z,84.45
2017-10-07T08:09:30.639Z,83.30
2017-10-07T08:11:58.202Z,83.03
2017-10-07T08:14:25.696Z,82.06
2017-10-07T08:16:53.179Z,82.69
2017-10-07T08:19:20.689Z,81.64
2017-10-07T08:21:48.174Z,80.85
2017-10-07T08:24:15.721Z,81.53
2017-10-07T08:26:43.213Z,81.91
2017-10-07T08:29:10.700Z,80.69
2017-10-07T08:31:38.415Z,80.06
2017-10-07T08:34:05.905Z,80.22
2017-10-07T08:36:33.395Z,79.47
2017-10-07T08:39:00.974Z,79.93
2017-10-07T08:41:28.467Z,79.56
2017-10-07T08:43:55.963Z,78.52
2017-10-07T08:46:23.544Z,78.81
2017-10-07T08:48:51.105Z,79.32
2017-10-07T08:51:18.637Z,79.28
2017-10-07T08:53:46.172Z,78.99
2017-10-07T08:56:13.691Z,78.56
2017-10-07T08:58:41.175Z,78.50
2017-10-07T09:01:08.704Z,76.81
2017-10-07T09:03:36.248Z,77.10
2017-10-07T09:06:03.735Z,76.38
2017-10-07T09:08:31.222Z,76.36
2017-10-07T09:10:58.760Z,76.38
2017-10-07T09:13:26.292Z,75.23
2017-10-07T09:15:53.780Z,76.53
2017-10-07T09:18:21.298Z,76.36
2017-10-07T09:20:48.785Z,75.91
2017-10-07T09:23:16.426Z,74.52
2017-10-07T09:25:43.917Z,75.15
2017-10-07T09:28:11.413Z,74.38
2017-10-07T09:30:39.008Z,74.18
2017-10-07T09:33:06.501Z,73.75
2017-10-07T09:35:34.016Z,73.27
2017-10-07T09:38:01.542Z,73.01
2017-10-07T09:40:29.063Z,72.91
2017-10-07T09:42:56.556Z,72.55
2017-10-07T09:45:24.073Z,72.50
2017-10-07T09:47:51.556Z,71.89
2017-10-07T09:50:19.110Z,70.07
2017-10-07T09:52:46.619Z,70.09
2017-10-07T09:55:14.109Z,70.46
2017-10-07T09:57:41.626Z,69.36
2017-10-07T10:00:09.113Z,68.98
2017-10-07T10:02:36.643Z,68.74
2017-10-07T10:05:04.188Z,67.52
2017-10-07T10:07:31.677Z,68.51
2017-10-07T10:09:59.164Z,67.58
2017-10-07T10:12:26.688Z,67.98
2017-10-07T10:14:54.175Z,68.66
2017-10-07T10:17:21.713Z,69.03
2017-10-07T10:19:49.212Z,68.36
2017-10-07T10:22:16.691Z,69.04
2017-10-07T10:24:44.279Z,70.72
2017-10-07T10:27:11.767Z,69.57
2017-10-07T10:29:39.253Z,68.65
2017-10-07T10:32:06.852Z,68.23
2017-10-07T10:34:34.619Z,67.82
2017-10-07T10:37:02.197Z,67.81
2017-10-07T10:39:29.680Z,67.82
2017-10-07T10:41:57.267Z,68.27
2017-10-07T10:44:24.749Z,68.63
2017-10-07T10:46:52.239Z,69.25
2017-10-07T10:49:19.976Z,68.81
2017-10-07T10:51:47.460Z,67.97
2017-10-07T10:54:14.997Z,67.97
2017-10-07T10:56:42.548Z,68.12
2017-10-07T10:59:10.041Z,68.38
2017-10-07T11:01:37.528Z,68.64
2017-10-07T11:04:05.124Z,69.81
2017-10-07T11:06:32.611Z,70.13
2017-10-07T11:09:00.161Z,69.89
2017-10-07T11:11:27.658Z,70.27
2017-10-07T11:13:55.159Z,70.56
2017-10-07T11:16:22.683Z,70.32
2017-10-07T11:18:50.183Z,71.31
2017-10-07T11:21:17.735Z,70.72
2017-10-07T11:23:45.264Z,70.00
2017-10-07T11:26:12.786Z,70.38
2017-10-07T11:28:40.284Z,70.96
2017-10-07T11:31:07.869Z,70.65
2017-10-07T11:33:35.391Z,70.47
2017-10-07T11:36:02.878Z,69.79
2017-10-07T11:38:30.425Z,69.03
2017-10-07T11:40:57.920Z,68.93
2017-10-07T11:43:25.403Z,69.39
2017-10-07T11:45:52.940Z,68.97
2017-10-07T11:48:20.471Z,68.77
2017-10-07T11:50:47.963Z,68.77
2017-10-07T11:53:15.551Z,69.19
2017-10-07T11:55:43.072Z,68.48
2017-10-07T11:58:10.559Z,67.58
2017-10-07T12:00:38.099Z,68.21
2017-10-07T12:03:05.609Z,67.57
2017-10-07T12:05:33.112Z,67.35
2017-10-07T12:08:00.765Z,67.29
2017-10-07T12:10:28.255Z,67.41
2017-10-07T12:12:55.777Z,68.72
2017-10-07T12:15:23.531Z,67.30
2017-10-07T12:17:51.033Z,66.87
2017-10-07T12:20:18.549Z,66.45
2017-10-07T12:22:46.084Z,66.14
2017-10-07T12:25:13.614Z,65.75
2017-10-07T12:27:41.104Z,65.63
2017-10-07T12:30:08.596Z,65.20
2017-10-07T12:32:36.340Z,65.39
2017-10-07T12:35:03.835Z,66.17
2017-10-07T12:37:31.331Z,66.29
2017-10-07T12:39:58.876Z,66.49
2017-10-07T12:42:26.368Z,66.51
2017-10-07T12:44:53.897Z,67.23
2017-10-07T12:47:21.435Z,67.03
2017-10-07T12:49:48.930Z,66.82
2017-10-07T12:52:17.210Z,65.82
2017-10-07T12:54:44.746Z,64.51
2017-10-07T12:57:12.243Z,63.69
2017-10-07T12:59:39.796Z,64.14
2017-10-07T13:02:07.280Z,64.37
2017-10-07T13:04:34.763Z,64.28
2017-10-07T13:07:02.310Z,64.22
2017-10-07T13:09:29.835Z,65.19
2017-10-07T13:11:57.331Z,66.97
2017-10-07T13:14:24.857Z,67.80
2017-10-07T13:16:52.382Z,66.92
2017-10-07T13:19:19.920Z,67.95
2017-10-07T13:21:47.432Z,67.68
2017-10-07T13:24:14.920Z,66.80
2017-10-07T13:26:42.467Z,67.78
2017-10-07T13:29:09.958Z,68.65
2017-10-07T13:31:37.439Z,68.65
2017-10-07T13:34:04.962Z,69.56
2017-10-07T13:36:32.456Z,70.85
2017-10-07T13:39:00.052Z,71.88
2017-10-07T13:41:27.560Z,72.24
2017-10-07T13:43:55.099Z,73.79
2017-10-07T13:46:22.586Z,75.07
2017-10-07T13:48:50.092Z,76.34
2017-10-07T13:51:17.627Z,76.07
2017-10-07T13:53:45.111Z,76.83
2017-10-07T13:56:12.662Z,77.12
2017-10-07T13:58:40.151Z,76.67
2017-10-07T14:01:07.662Z,78.59
2017-10-07T14:03:35.323Z,78.88
2017-10-07T14:06:02.879Z,79.58
2017-10-07T14:08:30.374Z,80.78
2017-10-07T14:10:57.893Z,81.00
2017-10-07T14:13:25.389Z,81.29
2017-10-07T14:15:52.918Z,82.21
2017-10-07T14:18:20.491Z,81.73
2017-10-07T14:20:47.989Z,82.55
2017-10-07T14:23:15.526Z,83.17
2017-10-07T14:25:43.014Z,83.45
2017-10-07T14:28:10.608Z,83.64
2017-10-07T14:30:38.151Z,83.30
2017-10-07T14:33:05.688Z,83.73
2017-10-07T14:35:33.187Z,83.36
2017-10-07T14:38:00.790Z,83.89
2017-10-07T14:40:28.285Z,83.73
2017-10-07T14:42:55.828Z,83.84
2017-10-07T14:45:23.319Z,84.74
2017-10-07T14:47:50.827Z,83.98
2017-10-07T14:50:19.156Z,84.56
2017-10-07T14:52:46.641Z,84.38
2017-10-07T14:55:14.139Z,85.14
2017-10-07T14:57:41.682Z,85.44
2017-10-07T15:00:09.171Z,85.56
2017-10-07T15:02:36.662Z,84.34
2017-10-07T15:05:04.188Z,84.95
2017-10-07T15:07:31.672Z,85.25
2017-10-07T15:09:59.161Z,86.00
2017-10-07T15:12:26.701Z,85.13
2017-10-07T15:14:54.183Z,86.22
2017-10-07T15:17:21.691Z,85.77
2017-10-07T15:19:49.253Z,85.26
2017-10-07T15:22:16.750Z,85.57
2017-10-07T15:24:44.266Z,85.58
2017-10-07T15:27:11.783Z,86.06
2017-10-07T15:29:39.267Z,84.95
2017-10-07T15:32:06.944Z,84.93
2017-10-07T15:34:34.503Z,84.97
2017-10-07T15:37:02.001Z,85.59
2017-10-07T15:39:29.628Z,85.20
2017-10-07T15:41:57.119Z,85.24
2017-10-07T15:44:24.615Z,85.38
2017-10-07T15:46:52.215Z,86.76
2017-10-07T15:49:19.707Z,85.88
2017-10-07T15:51:47.222Z,85.83
2017-10-07T15:54:14.792Z,86.28
2017-10-07T15:56:42.286Z,87.61
2017-10-07T15:59:09.822Z,86.99
2017-10-07T16:01:37.317Z,87.37
2017-10-07T16:04:04.809Z,87.80
2017-10-07T16:06:32.368Z,88.00
2017-10-07T16:08:59.919Z,88.07
2017-10-07T16:11:27.504Z,88.77
2017-10-07T16:13:54.987Z,88.69
2017-10-07T16:16:22.692Z,89.02
2017-10-07T16:18:50.204Z,88.83
2017-10-07T16:21:17.693Z,88.95
2017-10-07T16:23:45.219Z,89.90
2017-10-07T16:26:12.704Z,90.13
2017-10-07T16:28:40.187Z,90.10
2017-10-07T16:31:07.695Z,89.64
2017-10-07T16:33:35.231Z,90.37
2017-10-07T16:36:03.100Z,90.42
2017-10-07T16:38:30.583Z,90.33
2017-10-07T16:40:58.098Z,90.66
2017-10-07T16:43:25.623Z,91.10
2017-10-07T16:45:53.108Z,90.81
2017-10-07T16:48:20.593Z,91.13
2017-10-07T16:50:48.135Z,91.16
2017-10-07T16:53:15.626Z,91.00
2017-10-07T16:55:43.115Z,91.09
2017-10-07T16:58:10.721Z,91.56
2017-10-07T17:00:38.260Z,91.44
2017-10-07T17:03:05.832Z,91.41
2017-10-07T17:05:33.367Z,91.23
2017-10-07T17:08:00.858Z,91.60
2017-10-07T17:10:28.340Z,91.50
2017-10-07T17:12:55.877Z,92.22
2017-10-07T17:15:23.383Z,91.81
2017-10-07T17:17:50.875Z,91.65
2017-10-07T17:20:18.445Z,92.23
2017-10-07T17:22:45.995Z,91.79
2017-10-07T17:25:13.488Z,91.63
2017-10-07T17:27:41.195Z,92.07
2017-10-07T17:30:08.679Z,91.63
2017-10-07T17:32:36.162Z,92.10
2017-10-07T17:35:03.899Z,91.89
2017-10-07T17:37:31.443Z,92.09
2017-10-07T17:39:59.015Z,92.59
2017-10-07T17:42:26.540Z,92.69
2017-10-07T17:44:54.124Z,92.43
2017-10-07T17:47:21.695Z,92.56
2017-10-07T17:49:49.241Z,92.76
2017-10-07T17:52:16.725Z,92.64
2017-10-07T17:54:44.254Z,92.50
2017-10-07T17:57:11.806Z,92.53
2017-10-07T17:59:39.289Z,92.92
2017-10-07T18:02:06.772Z,93.07
2017-10-07T18:04:34.299Z,92.82
2017-10-07T18:07:01.849Z,92.64
2017-10-07T18:09:29.335Z,92.69
2017-10-07T18:11:56.891Z,93.01
2017-10-07T18:14:24.377Z,92.56
2017-10-07T18:16:51.859Z,92.65
2017-10-07T18:19:19.464Z,92.64
2017-10-07T18:21:46.976Z,92.52
2017-10-07T18:24:14.473Z,92.44
2017-10-07T18:26:41.984Z,92.34
2017-10-07T18:29:09.519Z,92.94
2017-10-07T18:31:37.014Z,92.84
2017-10-07T18:34:04.599Z,92.91
2017-10-07T18:36:32.112Z,92.24
2017-10-07T18:38:59.618Z,92.30
2017-10-07T18:41:27.105Z,92.80
2017-10-07T18:43:54.644Z,92.82
2017-10-07T18:46:22.208Z,92.36
2017-10-07T18:48:49.767Z,92.38
2017-10-07T18:51:17.315Z,92.40
2017-10-07T18:53:44.820Z,92.45
2017-10-07T18:56:12.307Z,92.47
2017-10-07T18:58:40.004Z,92.49
2017-10-07T19:01:07.488Z,92.91
2017-10-07T19:03:34.975Z,92.50
2017-10-07T19:06:02.766Z,92.26
2017-10-07T19:08:30.246Z,92.39
2017-10-07T19:10:57.728Z,92.45
2017-10-07T19:13:25.257Z,92.50
2017-10-07T19:15:52.819Z,92.30
2017-10-07T19:18:20.350Z,92.43
2017-10-07T19:20:47.875Z,92.30
2017-10-07T19:23:15.356Z,92.63
2017-10-07T19:25:42.840Z,92.09
2017-10-07T19:28:10.414Z,92.21
2017-10-07T19:30:37.907Z,91.84
2017-10-07T19:33:05.426Z,92.32
2017-10-07T19:35:32.954Z,92.04
2017-10-07T19:38:00.445Z,91.84
2017-10-07T19:40:27.950Z,92.10
2017-10-07T19:42:55.535Z,92.08
2017-10-07T19:45:23.035Z,91.42
2017-10-07T19:47:50.578Z,91.75
2017-10-07T19:50:18.094Z,91.56
2017-10-07T19:52:45.581Z,91.39
2017-10-07T19:55:13.143Z,90.95
2017-10-07T19:57:40.696Z,91.48
2017-10-07T20:00:08.254Z,90.78
2017-10-07T20:02:35.751Z,91.33
2017-10-07T20:05:03.231Z,90.81
2017-10-07T20:07:30.752Z,90.94
2017-10-07T20:09:58.231Z,91.60
2017-10-07T20:12:25.716Z,91.14
2017-10-07T20:14:53.240Z,91.25
2017-10-07T20:17:20.734Z,91.32
2017-10-07T20:19:48.338Z,91.52
2017-10-07T20:22:15.879Z,91.96
2017-10-07T20:24:43.369Z,92.57
2017-10-07T20:27:11.096Z,91.89
2017-10-07T20:29:39.583Z,92.52
2017-10-07T20:32:07.079Z,91.80
2017-10-07T20:34:34.796Z,91.91
2017-10-07T20:37:02.284Z,91.91
2017-10-07T20:39:29.769Z,91.64
2017-10-07T20:41:57.385Z,91.88
2017-10-07T20:44:25.154Z,92.22
2017-10-07T20:46:52.626Z,91.96
2017-10-07T20:49:20.108Z,91.87
2017-10-07T20:51:47.644Z,92.37
2017-10-07T20:54:15.138Z,92.55
2017-10-07T20:56:42.620Z,92.69
2017-10-07T20:59:10.144Z,92.41
2017-10-07T21:01:37.667Z,93.05
2017-10-07T21:04:05.147Z,92.63
2017-10-07T21:06:32.891Z,92.59
2017-10-07T21:09:00.428Z,92.94
2017-10-07T21:11:27.918Z,92.42
2017-10-07T21:13:55.527Z,92.51
2017-10-07T21:16:23.006Z,92.87
2017-10-07T21:18:50.495Z,93.14
2017-10-07T21:21:18.022Z,92.60
2017-10-07T21:23:45.503Z,92.46
2017-10-07T21:26:12.987Z,92.68
2017-10-07T21:28:40.533Z,92.62
2017-10-07T21:31:08.015Z,92.21
2017-10-07T21:33:35.497Z,92.10
2017-10-07T21:36:03.066Z,92.02
2017-10-07T21:38:30.563Z,92.38
2017-10-07T21:40:58.078Z,92.37
2017-10-07T21:43:25.578Z,92.15
2017-10-07T21:45:53.065Z,91.67
2017-10-07T21:48:20.578Z,91.55
2017-10-07T21:50:48.108Z,91.77
2017-10-07T21:53:15.625Z,92.18
2017-10-07T21:55:43.109Z,92.08
2017-10-07T21:58:10.591Z,92.13
2017-10-07T22:00:38.111Z,91.73
2017-10-07T22:03:05.599Z,91.65
2017-10-07T22:05:33.088Z,91.71
2017-10-07T22:08:00.638Z,91.90
2017-10-07T22:10:28.120Z,91.86
2017-10-07T22:12:55.605Z,92.11
2017-10-07T22:15:23.202Z,92.01
2017-10-07T22:17:50.683Z,92.21
2017-10-07T22:20:18.159Z,92.03
2017-10-07T22:22:45.771Z,92.41
2017-10-07T22:25:13.256Z,91.78
2017-10-07T22:27:40.771Z,91.97
2017-10-07T22:30:08.479Z,92.20
2017-10-07T22:32:35.990Z,91.81
2017-10-07T22:35:03.475Z,92.50
2017-10-07T22:37:31.022Z,92.28
2017-10-07T22:39:58.498Z,92.17
2017-10-07T22:42:25.994Z,92.30
2017-10-07T22:44:53.504Z,92.44
2017-10-07T22:47:20.983Z,92.68
2017-10-07T22:49:48.494Z,92.96
2017-10-07T22:52:16.068Z,92.99
2017-10-07T22:54:43.630Z,93.26
2017-10-07T22:57:11.421Z,92.93
2017-10-07T22:59:38.901Z,92.85
2017-10-07T23:02:06.414Z,93.12
2017-10-07T23:04:33.974Z,92.90
2017-10-07T23:07:01.527Z,93.08
2017-10-07T23:09:29.087Z,92.97
2017-10-07T23:11:56.596Z,92.92
2017-10-07T23:14:24.119Z,93.26
2017-10-07T23:16:51.604Z,93.50
2017-10-07T23:19:19.141Z,93.50
2017-10-07T23:21:46.624Z,92.92
2017-10-07T23:24:14.135Z,92.79
2017-10-07T23:26:41.662Z,93.18
2017-10-07T23:29:09.179Z,93.18
2017-10-07T23:31:36.655Z,93.35
2017-10-07T23:34:04.195Z,93.12
2017-10-07T23:36:31.736Z,93.16
2017-10-07T23:38:59.297Z,92.98
2017-10-07T23:41:27.060Z,93.15
2017-10-07T23:43:54.619Z,93.30
2017-10-07T23:46:22.180Z,93.68
2017-10-07T23:48:49.709Z,93.38
2017-10-07T23:51:17.198Z,93.37
2017-10-07T23:53:44.772Z,93.25
2017-10-07T23:56:12.282Z,93.37
2017-10-07T23:58:39.777Z,93.34
